Home > Products > Valid Products > MTR

000
SAHW31 PHFO 290354
MTRITO
METAR PHTO 290353Z 10006KT 10SM CLR 27/22 A3002 RMK AO2 SLP163
T02670217




000
SAHW31 PHFO 290254
MTRITO
METAR PHTO 290253Z VRB06KT 10SM FEW035 SCT050 28/22 A3001 RMK AO2
SLP162 T02830217 58005





000
SAHW31 PHFO 290254
MTRITO
METAR PHTO 290253Z VRB06KT 10SM FEW035 SCT050 28/22 A3001 RMK AO2
SLP162 T02830217 58005




000
SAHW31 PHFO 290154
MTRITO
METAR PHTO 290153Z 09008KT 10SM SCT027 BKN055 28/21 A3002 RMK AO2
SLP164 T02830211





000
SAHW31 PHFO 290055
MTRITO
METAR PHTO 290053Z 11009KT 10SM FEW027 SCT037 BKN055 28/22 A3003 RMK
AO2 SLP166 T02830217




000
SAHW31 PHFO 290055
MTRITO
METAR PHTO 290053Z 11009KT 10SM FEW027 SCT037 BKN055 28/22 A3003 RMK
AO2 SLP166 T02830217





000
SAHW31 PHFO 290001
MTRITO
SPECI PHTO 290000Z 09011KT 10SM FEW029 FEW035 BKN047 29/21 A3003 RMK
AO2 T02940211




000
SAHW31 PHFO 290001
MTRITO
SPECI PHTO 290000Z 09011KT 10SM FEW029 FEW035 BKN047 29/21 A3003 RMK
AO2 T02940211





000
SAHW31 PHFO 282354
MTRITO
METAR PHTO 282353Z 08011KT 10SM BKN025 BKN047 29/21 A3003 RMK AO2
SLP167 60001 T02940211 10294 20233 58010





000
SAHW31 PHFO 282354
MTRITO
METAR PHTO 282353Z 08011KT 10SM BKN025 BKN047 29/21 A3003 RMK AO2
SLP167 60001 T02940211 10294 20233 58010




000
SAHW31 PHFO 282254
MTRITO
METAR PHTO 282253Z 12010KT 10SM BKN025 BKN032 BKN042 29/22 A3004 RMK
AO2 SLP171 T02890217





000
SAHW31 PHFO 282254
MTRITO
METAR PHTO 282253Z 12010KT 10SM BKN025 BKN032 BKN042 29/22 A3004 RMK
AO2 SLP171 T02890217




000
SAHW31 PHFO 282221
MTRITO
SPECI PHTO 282220Z 10009KT 10SM BKN025 BKN032 BKN042 28/22 A3005 RMK
AO2 T02780222




000
SAHW31 PHFO 282221
MTRITO
SPECI PHTO 282220Z 10009KT 10SM BKN025 BKN032 BKN042 28/22 A3005 RMK
AO2 T02780222





000
SAHW31 PHFO 282155
MTRITO
METAR PHTO 282153Z 10008KT 10SM SCT025 BKN032 BKN065 28/22 A3005 RMK
AO2 SLP174 T02830222





000
SAHW31 PHFO 282155
MTRITO
METAR PHTO 282153Z 10008KT 10SM SCT025 BKN032 BKN065 28/22 A3005 RMK
AO2 SLP174 T02830222




000
SAHW31 PHFO 282054
MTRITO
METAR PHTO 282053Z VRB05KT 10SM SCT024 SCT034 BKN041 29/22 A3006 RMK
AO2 SLP176 60001 T02890222 58002





000
SAHW31 PHFO 282054
MTRITO
METAR PHTO 282053Z VRB05KT 10SM SCT024 SCT034 BKN041 29/22 A3006 RMK
AO2 SLP176 60001 T02890222 58002




000
SAHW31 PHFO 282035
MTRITO
SPECI PHTO 282034Z 03005KT 10SM SCT026 BKN035 BKN041 28/22 A3006 RMK
AO2 T02780222





000
SAHW31 PHFO 282035
MTRITO
SPECI PHTO 282034Z 03005KT 10SM SCT026 BKN035 BKN041 28/22 A3006 RMK
AO2 T02780222




000
SAHW31 PHFO 281954
MTRITO
METAR PHTO 281953Z 33004KT 10SM BKN027 BKN042 27/22 A3007 RMK AO2
SLP179 T02720217





000
SAHW31 PHFO 281854
MTRITO
METAR PHTO 281853Z 24007KT 10SM BKN029 OVC037 25/23 A3007 RMK AO2
RAE1754B21E34 SLP180 VIS LWR SW-NW P0001 T02500228





000
SAHW31 PHFO 281854
MTRITO
METAR PHTO 281853Z 24007KT 10SM BKN029 OVC037 25/23 A3007 RMK AO2
RAE1754B21E34 SLP180 VIS LWR SW-NW P0001 T02500228




000
SAHW31 PHFO 281754
MTRITO
METAR PHTO 281753Z 26005KT 8SM -RA BKN025 BKN030 OVC035 23/22 A3006
RMK AO2 RAB12 SLP179 VIS SW-NW 2 P0001 60011 T02330222 10233 20211
53009




000
SAHW31 PHFO 281754
MTRITO
METAR PHTO 281753Z 26005KT 8SM -RA BKN025 BKN030 OVC035 23/22 A3006
RMK AO2 RAB12 SLP179 VIS SW-NW 2 P0001 60011 T02330222 10233 20211
53009





000
SAHW31 PHFO 281733
MTRITO
SPECI PHTO 281732Z 00000KT 3SM -RA BR BKN027 OVC033 22/21 A3006 RMK
AO2 RAB12 P0001 T02220211




000
SAHW31 PHFO 281654
MTRITO
METAR PHTO 281653Z 00000KT 10SM FEW016 FEW027 OVC034 21/19 A3005 RMK
AO2 RAE50 SLP175 P0010 T02110194




000
SAHW31 PHFO 281654
MTRITO
METAR PHTO 281653Z 00000KT 10SM FEW016 FEW027 OVC034 21/19 A3005 RMK
AO2 RAE50 SLP175 P0010 T02110194





000
SAHW31 PHFO 281651
MTRITO
SPECI PHTO 281650Z 26003KT 10SM FEW021 FEW027 OVC034 21/19 A3005 RMK
AO2 RAE50 P0010





000
SAHW31 PHFO 281651
MTRITO
SPECI PHTO 281650Z 26003KT 10SM FEW021 FEW027 OVC034 21/19 A3005 RMK
AO2 RAE50 P0010




000
SAHW31 PHFO 281554
MTRITO
METAR PHTO 281553Z 00000KT 4SM -RA BR BKN022 OVC046 21/19 A3004 RMK
AO2 RAB43 SLP170 P0000 T02110189




000
SAHW31 PHFO 281554
MTRITO
METAR PHTO 281553Z 00000KT 4SM -RA BR BKN022 OVC046 21/19 A3004 RMK
AO2 RAB43 SLP170 P0000 T02110189





000
SAHW31 PHFO 281454
MTRITO
METAR PHTO 281453Z 23005KT 10SM BKN055 23/17 A3002 RMK AO2 SLP164
T02280172 55004




000
SAHW31 PHFO 281454
MTRITO
METAR PHTO 281453Z 23005KT 10SM BKN055 23/17 A3002 RMK AO2 SLP164
T02280172 55004





000
SAHW31 PHFO 281354
MTRITO
METAR PHTO 281353Z 23005KT 10SM OVC055 23/18 A3001 RMK AO2 SLP162
T02330183




000
SAHW31 PHFO 281354
MTRITO
METAR PHTO 281353Z 23005KT 10SM OVC055 23/18 A3001 RMK AO2 SLP162
T02330183





000
SAHW31 PHFO 281254
MTRITO
METAR PHTO 281253Z 24006KT 10SM OVC055 23/18 A3002 RMK AO2 SLP163
T02280183




000
SAHW31 PHFO 281254
MTRITO
METAR PHTO 281253Z 24006KT 10SM OVC055 23/18 A3002 RMK AO2 SLP163
T02280183





000
SAHW31 PHFO 281154
MTRITO
METAR PHTO 281153Z 24005KT 10SM SCT022 BKN055 23/21 A3003 RMK AO2
SLP168 70001 T02330206 10256 20233 58012





000
SAHW31 PHFO 281154
MTRITO
METAR PHTO 281153Z 24005KT 10SM SCT022 BKN055 23/21 A3003 RMK AO2
SLP168 70001 T02330206 10256 20233 58012




000
SAHW31 PHFO 281054
MTRITO
METAR PHTO 281053Z 24004KT 10SM FEW034 24/22 A3004 RMK AO2 SLP172
T02390217




000
SAHW31 PHFO 281054
MTRITO
METAR PHTO 281053Z 24004KT 10SM FEW034 24/22 A3004 RMK AO2 SLP172
T02390217





000
SAHW31 PHFO 281041
MTRITO
SPECI PHTO 281040Z 21003KT 10SM SCT022 BKN034 24/22 A3005 RMK AO2
T02440222





000
SAHW31 PHFO 281041
MTRITO
SPECI PHTO 281040Z 21003KT 10SM SCT022 BKN034 24/22 A3005 RMK AO2
T02440222




000
SAHW31 PHFO 281023
MTRITO
SPECI PHTO 281021Z 24004KT 10SM BKN022 BKN027 OVC055 24/22 A3005 RMK
AO2 T02440222




000
SAHW31 PHFO 281023
MTRITO
SPECI PHTO 281021Z 24004KT 10SM BKN022 BKN027 OVC055 24/22 A3005 RMK
AO2 T02440222





000
SAHW31 PHFO 280954
MTRITO
METAR PHTO 280953Z AUTO 25004KT 10SM SCT029 BKN046 24/22 A3006 RMK
AO2 SLP178 T02440222 403000228 TSNO




000
SAHW31 PHFO 280854
MTRITO
METAR PHTO 280853Z AUTO 00000KT 10SM FEW027 SCT037 BKN055 25/22
A3007 RMK AO2 SLP180 T02500222 51014 TSNO





000
SAHW31 PHFO 280854
MTRITO
METAR PHTO 280853Z AUTO 00000KT 10SM FEW027 SCT037 BKN055 25/22
A3007 RMK AO2 SLP180 T02500222 51014 TSNO




000
SAHW31 PHFO 280754
MTRITO
METAR PHTO 280753Z 00000KT 10SM FEW028 OVC045 26/22 A3006 RMK AO2
SLP177 T02560222




000
SAHW31 PHFO 280754
MTRITO
METAR PHTO 280753Z 00000KT 10SM FEW028 OVC045 26/22 A3006 RMK AO2
SLP177 T02560222





000
SAHW31 PHFO 280654
MTRITO
METAR PHTO 280653Z 00000KT 10SM BKN050 26/22 A3005 RMK AO2 SLP173
T02560222




000
SAHW31 PHFO 280654
MTRITO
METAR PHTO 280653Z 00000KT 10SM BKN050 26/22 A3005 RMK AO2 SLP173
T02560222





000
SAHW31 PHFO 280554
MTRITO
METAR PHTO 280553Z 16003KT 10SM FEW025 BKN047 26/22 A3003 RMK AO2
SLP166 T02610222 10300 20261 51020




000
SAHW31 PHFO 280554
MTRITO
METAR PHTO 280553Z 16003KT 10SM FEW025 BKN047 26/22 A3003 RMK AO2
SLP166 T02610222 10300 20261 51020





000
SAHW31 PHFO 280531
MTRITO
SPECI PHTO 280530Z 14003KT 10SM SCT022 BKN040 OVC050 26/22 A3002 RMK
AO2 T02610222




000
SAHW31 PHFO 280531
MTRITO
SPECI PHTO 280530Z 14003KT 10SM SCT022 BKN040 OVC050 26/22 A3002 RMK
AO2 T02610222





000
SAHW31 PHFO 280526
MTRLIH
SPECI PHLI 280523Z 06013KT 10SM FEW019 SCT024 BKN035 26/21 A3002 RMK
AO2 $





000
SAHW31 PHFO 280526
MTRLIH
SPECI PHLI 280523Z 06013KT 10SM FEW019 SCT024 BKN035 26/21 A3002 RMK
AO2 $




000
SAHW31 PHFO 280509
MTRITO
SPECI PHTO 280508Z 00000KT 10SM BKN022 BKN032 OVC039 26/22 A3001 RMK
AO2 T02610222




000
SAHW31 PHFO 280509
MTRITO
SPECI PHTO 280508Z 00000KT 10SM BKN022 BKN032 OVC039 26/22 A3001 RMK
AO2 T02610222





000
SAHW31 PHFO 280454
MTRITO
METAR PHTO 280453Z 00000KT 10SM SCT024 BKN036 OVC050 26/22 A3001 RMK
AO2 SLP160 T02610222




000
SAHW31 PHFO 280454
MTRITO
METAR PHTO 280453Z 00000KT 10SM SCT024 BKN036 OVC050 26/22 A3001 RMK
AO2 SLP160 T02610222





000
SAHW31 PHFO 280354
MTRITO
METAR PHTO 280353Z 10009KT 10SM FEW024 SCT050 27/22 A2999 RMK AO2
SLP153 T02670217




000
SAHW31 PHFO 280354
MTRITO
METAR PHTO 280353Z 10009KT 10SM FEW024 SCT050 27/22 A2999 RMK AO2
SLP153 T02670217





000
SAHW31 PHFO 280254
MTRITO
METAR PHTO 280253Z 13009KT 10SM BKN047 28/21 A2997 RMK AO2 SLP146
T02780211 55012




000
SAHW31 PHFO 280254
MTRITO
METAR PHTO 280253Z 13009KT 10SM BKN047 28/21 A2997 RMK AO2 SLP146
T02780211 55012





000
SAHW31 PHFO 280154
MTRITO
METAR PHTO 280153Z 14009G17KT 10SM CLR 29/21 A2996 RMK AO2 SLP144
T02940211




000
SAHW31 PHFO 280154
MTRITO
METAR PHTO 280153Z 14009G17KT 10SM CLR 29/21 A2996 RMK AO2 SLP144
T02940211





000
SAHW31 PHFO 280054
MTRITO
METAR PHTO 280053Z 11009KT 10SM SCT026 SCT060 SCT200 29/21 A2998 RMK
AO2 SLP152 T02940206




000
SAHW31 PHFO 280054
MTRITO
METAR PHTO 280053Z 11009KT 10SM SCT026 SCT060 SCT200 29/21 A2998 RMK
AO2 SLP152 T02940206





000
SAHW31 PHFO 272354
MTRITO
METAR PHTO 272353Z 11013KT 10SM SCT060 29/22 A3000 RMK AO2 SLP158
60001 T02940222 10300 20239 56005




000
SAHW31 PHFO 272354
MTRITO
METAR PHTO 272353Z 11013KT 10SM SCT060 29/22 A3000 RMK AO2 SLP158
60001 T02940222 10300 20239 56005





000
SAHW31 PHFO 272254
MTRITO
METAR PHTO 272253Z 09013G16KT 10SM BKN030 BKN060 BKN150 29/21 A3001
RMK AO2 SLP160 T02890206




000
SAHW31 PHFO 272254
MTRITO
METAR PHTO 272253Z 09013G16KT 10SM BKN030 BKN060 BKN150 29/21 A3001
RMK AO2 SLP160 T02890206





000
SAHW31 PHFO 272154
MTRITO
METAR PHTO 272153Z 08009KT 10SM SCT035 SCT060 BKN150 29/22 A3001 RMK
AO2 SLP160 T02890217




000
SAHW31 PHFO 272154
MTRITO
METAR PHTO 272153Z 08009KT 10SM SCT035 SCT060 BKN150 29/22 A3001 RMK
AO2 SLP160 T02890217





000
SAHW31 PHFO 272054
MTRITO
METAR PHTO 272053Z 16005KT 10SM SCT035 SCT060 BKN150 29/19 A3002 RMK
AO2 SLP163 60001 T02940194 58001




000
SAHW31 PHFO 272054
MTRITO
METAR PHTO 272053Z 16005KT 10SM SCT035 SCT060 BKN150 29/19 A3002 RMK
AO2 SLP163 60001 T02940194 58001





000
SAHW31 PHFO 271954
MTRITO
METAR PHTO 271953Z 18004KT 10SM FEW035 SCT060 BKN150 28/21 A3003 RMK
AO2 SLP167 T02830211





000
SAHW31 PHFO 271954
MTRITO
METAR PHTO 271953Z 18004KT 10SM FEW035 SCT060 BKN150 28/21 A3003 RMK
AO2 SLP167 T02830211




000
SAHW31 PHFO 271854
MTRITO
METAR PHTO 271853Z 22006KT 10SM FEW025 BKN038 BKN047 27/22 A3004 RMK
AO2 RAB1754E42 SLP170 P0001 T02670222 $





000
SAHW31 PHFO 271754
MTRITO
METAR PHTO 271753Z 14003KT 10SM BKN048 BKN060 25/19 A3002 RMK AO2
SLP164 60000 T02500194 10250 20228 53025





000
SAHW31 PHFO 271754
MTRITO
METAR PHTO 271753Z 14003KT 10SM BKN048 BKN060 25/19 A3002 RMK AO2
SLP164 60000 T02500194 10250 20228 53025




000
SAHW31 PHFO 271659
MTRITO
METAR PHTO 271653Z COR 25007KT 10SM BKN047 BKN060 23/19 A2999 RMK
AO2 RAB24E33 SLP154 P0000 T02330189





000
SAHW31 PHFO 271659
MTRITO
METAR PHTO 271653Z COR 25007KT 10SM BKN047 BKN060 23/19 A2999 RMK
AO2 RAB24E33 SLP154 P0000 T02330189




000
SAHW31 PHFO 271654
MTRITO
METAR PHTO 271653Z 25007KT 10SM BKN047 OVC060 23/19 A2999 RMK AO2
RAB24E33 SLP154 P0000 T02330189




000
SAHW31 PHFO 271654
MTRITO
METAR PHTO 271653Z 25007KT 10SM BKN047 OVC060 23/19 A2999 RMK AO2
RAB24E33 SLP154 P0000 T02330189





000
SAHW31 PHFO 271554
MTRITO
METAR PHTO 271553Z 22007KT 10SM BKN041 OVC055 23/18 A2997 RMK AO2
SLP147 T02280183





000
SAHW31 PHFO 271554
MTRITO
METAR PHTO 271553Z 22007KT 10SM BKN041 OVC055 23/18 A2997 RMK AO2
SLP147 T02280183




000
SAHW31 PHFO 271454
MTRITO
METAR PHTO 271453Z 24007KT 10SM OVC055 23/18 A2995 RMK AO2 SLP139
T02280183 55006




000
SAHW31 PHFO 271454
MTRITO
METAR PHTO 271453Z 24007KT 10SM OVC055 23/18 A2995 RMK AO2 SLP139
T02280183 55006





000
SAHW31 PHFO 271354
MTRITO
METAR PHTO 271353Z 23005KT 10SM OVC050 23/19 A2994 RMK AO2 SLP138
T02280194




000
SAHW31 PHFO 271354
MTRITO
METAR PHTO 271353Z 23005KT 10SM OVC050 23/19 A2994 RMK AO2 SLP138
T02280194





000
SAHW31 PHFO 271254
MTRITO
METAR PHTO 271253Z 24004KT 10SM OVC055 23/21 A2995 RMK AO2 SLP141
T02330211




000
SAHW31 PHFO 271254
MTRITO
METAR PHTO 271253Z 24004KT 10SM OVC055 23/21 A2995 RMK AO2 SLP141
T02330211





000
SAHW31 PHFO 271154
MTRITO
METAR PHTO 271153Z 24003KT 10SM OVC050 24/22 A2997 RMK AO2 SLP146
60001 70001 T02390217 10256 20233 56014





000
SAHW31 PHFO 271154
MTRITO
METAR PHTO 271153Z 24003KT 10SM OVC050 24/22 A2997 RMK AO2 SLP146
60001 70001 T02390217 10256 20233 56014




000
SAHW31 PHFO 271054
MTRITO
METAR PHTO 271053Z 23004KT 10SM SCT055 23/22 A2998 RMK AO2 SLP150
T02330222




000
SAHW31 PHFO 271054
MTRITO
METAR PHTO 271053Z 23004KT 10SM SCT055 23/22 A2998 RMK AO2 SLP150
T02330222





000
SAHW31 PHFO 270954
MTRITO
METAR PHTO 270953Z AUTO 22004KT 10SM FEW055 24/22 A2999 RMK AO2
SLP155 T02390222 403060206 TSNO




000
SAHW31 PHFO 270954
MTRITO
METAR PHTO 270953Z AUTO 22004KT 10SM FEW055 24/22 A2999 RMK AO2
SLP155 T02390222 403060206 TSNO





000
SAHW31 PHFO 270913
MTRITO
SPECI PHTO 270912Z AUTO 22004KT 10SM FEW021 SCT027 BKN055 24/23
A3000 RMK AO2 T02440228 TSNO




000
SAHW31 PHFO 270913
MTRITO
SPECI PHTO 270912Z AUTO 22004KT 10SM FEW021 SCT027 BKN055 24/23
A3000 RMK AO2 T02440228 TSNO





000
SAHW31 PHFO 270906
MTRITO
SPECI PHTO 270904Z AUTO 24003KT 10SM FEW021 BKN027 BKN060 24/23
A3001 RMK AO2 T02440228 TSNO





000
SAHW31 PHFO 270906
MTRITO
SPECI PHTO 270904Z AUTO 24003KT 10SM FEW021 BKN027 BKN060 24/23
A3001 RMK AO2 T02440228 TSNO




000
SAHW31 PHFO 270854
MTRITO
METAR PHTO 270853Z AUTO 00000KT 10SM SCT023 BKN060 24/23 A3001 RMK
AO2 SLP159 60001 T02440233 51004 TSNO




000
SAHW31 PHFO 270854
MTRITO
METAR PHTO 270853Z AUTO 00000KT 10SM SCT023 BKN060 24/23 A3001 RMK
AO2 SLP159 60001 T02440233 51004 TSNO





000
SAHW31 PHFO 270754
MTRITO
METAR PHTO 270753Z 22003KT 10SM FEW021 SCT029 OVC055 25/23 A3001 RMK
AO2 RAB17E32 SLP159 P0001 T02500233





000
SAHW31 PHFO 270754
MTRITO
METAR PHTO 270753Z 22003KT 10SM FEW021 SCT029 OVC055 25/23 A3001 RMK
AO2 RAB17E32 SLP159 P0001 T02500233




000
SAHW31 PHFO 270751
MTRITO
SPECI PHTO 270750Z 23004KT 10SM FEW021 SCT029 OVC055 25/23 A3001 RMK
AO2 RAB17E32 P0001




000
SAHW31 PHFO 270751
MTRITO
SPECI PHTO 270750Z 23004KT 10SM FEW021 SCT029 OVC055 25/23 A3001 RMK
AO2 RAB17E32 P0001





000
SAHW31 PHFO 270744
MTRITO
SPECI PHTO 270742Z 25004KT 10SM BKN023 BKN031 OVC055 25/23 A3001 RMK
AO2 RAB17E32 P0001 T02500233





000
SAHW31 PHFO 270744
MTRITO
SPECI PHTO 270742Z 25004KT 10SM BKN023 BKN031 OVC055 25/23 A3001 RMK
AO2 RAB17E32 P0001 T02500233




000
SAHW31 PHFO 270654
MTRITO
METAR PHTO 270653Z 21003KT 10SM SCT040 25/23 A3000 RMK AO2 RAE0559
SLP156 P0000 T02500228




000
SAHW31 PHFO 270654
MTRITO
METAR PHTO 270653Z 21003KT 10SM SCT040 25/23 A3000 RMK AO2 RAE0559
SLP156 P0000 T02500228





000
SAHW31 PHFO 270554
MTRITO
METAR PHTO 270553Z 00000KT 10SM -RA FEW025 BKN046 OVC055 26/23 A2998
RMK AO2 RAB34 SLP151 P0000 60000 T02560233 10306 20256 51012




000
SAHW31 PHFO 270554
MTRITO
METAR PHTO 270553Z 00000KT 10SM -RA FEW025 BKN046 OVC055 26/23 A2998
RMK AO2 RAB34 SLP151 P0000 60000 T02560233 10306 20256 51012





000
SAHW31 PHFO 270550
MTRITO
SPECI PHTO 270548Z 00000KT 10SM -RA FEW021 BKN036 OVC046 26/23 A2998
RMK AO2 RAB34 P0000




000
SAHW31 PHFO 270550
MTRITO
SPECI PHTO 270548Z 00000KT 10SM -RA FEW021 BKN036 OVC046 26/23 A2998
RMK AO2 RAB34 P0000





000
SAHW31 PHFO 270535
MTRITO
SPECI PHTO 270534Z 13005KT 10SM -RA FEW018 BKN026 OVC065 27/23 A2998
RMK AO2 RAB34 P0000 T02670228





000
SAHW31 PHFO 270535
MTRITO
SPECI PHTO 270534Z 13005KT 10SM -RA FEW018 BKN026 OVC065 27/23 A2998
RMK AO2 RAB34 P0000 T02670228




000
SAHW31 PHFO 270454
MTRITO
METAR PHTO 270453Z 16003KT 10SM BKN065 27/22 A2996 RMK AO2 SLP145
T02670222





000
SAHW31 PHFO 270454
MTRITO
METAR PHTO 270453Z 16003KT 10SM BKN065 27/22 A2996 RMK AO2 SLP145
T02670222




000
SAHW31 PHFO 270354
MTRITO
METAR PHTO 270353Z 16005KT 10SM BKN060 27/22 A2995 RMK AO2 SLP139
T02720217





000
SAHW31 PHFO 270354
MTRITO
METAR PHTO 270353Z 16005KT 10SM BKN060 27/22 A2995 RMK AO2 SLP139
T02720217




000
SAHW31 PHFO 270254
MTRITO
METAR PHTO 270253Z 15008KT 10SM FEW027 BKN060 29/22 A2994 RMK AO2
SLP135 T02890217 55004




000
SAHW31 PHFO 270254
MTRITO
METAR PHTO 270253Z 15008KT 10SM FEW027 BKN060 29/22 A2994 RMK AO2
SLP135 T02890217 55004





000
SAHW31 PHFO 270211
MTRITO
METAR PHTO 270153Z COR 12008KT 10SM BKN060 28/22 A2993 RMK AO2
SLP135 T02830222




000
SAHW31 PHFO 270154
MTRITO
METAR PHTO 270153Z 12008KT 10SM OVC060 28/22 A2993 RMK AO2 SLP135
T02830222





000
SAHW31 PHFO 270154
MTRITO
METAR PHTO 270153Z 12008KT 10SM OVC060 28/22 A2993 RMK AO2 SLP135
T02830222




000
SAHW31 PHFO 270054
MTRITO
METAR PHTO 270053Z 12010G17KT 10SM SCT055 30/22 A2994 RMK AO2 SLP136
T03000217




000
SAHW31 PHFO 270054
MTRITO
METAR PHTO 270053Z 12010G17KT 10SM SCT055 30/22 A2994 RMK AO2 SLP136
T03000217





000
SAHW31 PHFO 270000
MTRITO
METAR PHTO 262353Z COR 10010KT 10SM SCT060 BKN180 30/22 A2995 RMK
AO2 SLP140 T03000217 10306 20250 56011





000
SAHW31 PHFO 270000
MTRITO
METAR PHTO 262353Z COR 10010KT 10SM SCT060 BKN180 30/22 A2995 RMK
AO2 SLP140 T03000217 10306 20250 56011




000
SAHW31 PHFO 262354
MTRITO
METAR PHTO 262353Z 10010KT 10SM CLR 30/22 A2995 RMK AO2 SLP140
T03000217 10306 20250 56011




000
SAHW31 PHFO 262354
MTRITO
METAR PHTO 262353Z 10010KT 10SM CLR 30/22 A2995 RMK AO2 SLP140
T03000217 10306 20250 56011





000
SAHW31 PHFO 262302
MTRITO
METAR PHTO 262253Z COR 10009KT 10SM SCT060 BKN180 31/22 A2996 RMK
AO2 SLP143 T03060217




000
SAHW31 PHFO 262302
MTRITO
METAR PHTO 262253Z COR 10009KT 10SM SCT060 BKN180 31/22 A2996 RMK
AO2 SLP143 T03060217





000
SAHW31 PHFO 262254
MTRITO
METAR PHTO 262253Z 10009KT 10SM CLR 31/22 A2996 RMK AO2 SLP143
T03060217




000
SAHW31 PHFO 262254
MTRITO
METAR PHTO 262253Z 10009KT 10SM CLR 31/22 A2996 RMK AO2 SLP143
T03060217





000
SAHW31 PHFO 262154
MTRITO
METAR PHTO 262153Z VRB05G17KT 10SM SCT034 BKN055 29/22 A2997 RMK AO2
SLP147 T02940217




000
SAHW31 PHFO 262154
MTRITO
METAR PHTO 262153Z VRB05G17KT 10SM SCT034 BKN055 29/22 A2997 RMK AO2
SLP147 T02940217





000
SAHW31 PHFO 262055
MTRITO
METAR PHTO 262053Z VRB04KT 10SM BKN031 OVC047 28/22 A2998 RMK AO2
SLP150 T02830217 50006




000
SAHW31 PHFO 262055
MTRITO
METAR PHTO 262053Z VRB04KT 10SM BKN031 OVC047 28/22 A2998 RMK AO2
SLP150 T02830217 50006





000
SAHW31 PHFO 261954
MTRITO
METAR PHTO 261953Z VRB03KT 10SM FEW025 OVC043 28/22 A2999 RMK AO2
SLP152 T02780217




000
SAHW31 PHFO 261954
MTRITO
METAR PHTO 261953Z VRB03KT 10SM FEW025 OVC043 28/22 A2999 RMK AO2
SLP152 T02780217





000
SAHW31 PHFO 261854
MTRITO
METAR PHTO 261853Z 13003KT 10SM BKN045 BKN055 27/21 A2998 RMK AO2
SLP151 T02720206





000
SAHW31 PHFO 261854
MTRITO
METAR PHTO 261853Z 13003KT 10SM BKN045 BKN055 27/21 A2998 RMK AO2
SLP151 T02720206




000
SAHW31 PHFO 261754
MTRITO
METAR PHTO 261753Z 20003KT 10SM FEW025 BKN049 25/19 A2996 RMK AO2
SLP144 T02500189 10250 20206 53009





000
SAHW31 PHFO 261654
MTRITO
METAR PHTO 261653Z 23005KT 10SM FEW025 22/18 A2995 RMK AO2 SLP141
T02220178





000
SAHW31 PHFO 261654
MTRITO
METAR PHTO 261653Z 23005KT 10SM FEW025 22/18 A2995 RMK AO2 SLP141
T02220178




000
SAHW31 PHFO 261554
MTRITO
METAR PHTO 261553Z 23007KT 10SM FEW025 21/18 A2993 RMK AO2 SLP135
T02060178




000
SAHW31 PHFO 261454
MTRITO
METAR PHTO 261453Z 23007KT 10SM SCT025 21/18 A2994 RMK AO2 SLP136
T02110178 56009





000
SAHW31 PHFO 261454
MTRITO
METAR PHTO 261453Z 23007KT 10SM SCT025 21/18 A2994 RMK AO2 SLP136
T02110178 56009




000
SAHW31 PHFO 261355
MTRITO
METAR PHTO 261353Z COR 24006KT 10SM SCT025 22/19 A2994 RMK AO2
SLP136 T02170194




000
SAHW31 PHFO 261355
MTRITO
METAR PHTO 261353Z COR 24006KT 10SM SCT025 22/19 A2994 RMK AO2
SLP136 T02170194





000
SAHW31 PHFO 261301
MTRITO
SPECI PHTO 261301Z 24005KT 10SM FEW023 SCT036 22/21 A2995 RMK AO2
T02220206





000
SAHW31 PHFO 261301
MTRITO
SPECI PHTO 261301Z 24005KT 10SM FEW023 SCT036 22/21 A2995 RMK AO2
T02220206




000
SAHW31 PHFO 261254
MTRITO
METAR PHTO 261253Z 24003KT 10SM SCT023 BKN028 BKN035 22/21 A2995 RMK
AO2 SLP140 T02220206





000
SAHW31 PHFO 261254
MTRITO
METAR PHTO 261253Z 24003KT 10SM SCT023 BKN028 BKN035 22/21 A2995 RMK
AO2 SLP140 T02220206




000
SAHW31 PHFO 261154
MTRITO
METAR PHTO 261153Z 25003KT 10SM SCT022 BKN034 BKN046 23/21 A2996 RMK
AO2 SLP145 60002 70016 T02280206 10233 20222 56011




000
SAHW31 PHFO 261154
MTRITO
METAR PHTO 261153Z 25003KT 10SM SCT022 BKN034 BKN046 23/21 A2996 RMK
AO2 SLP145 60002 70016 T02280206 10233 20222 56011





000
SAHW31 PHFO 261054
MTRITO
METAR PHTO 261053Z 22004KT 10SM SCT040 22/21 A2998 RMK AO2 SLP151
T02220206





000
SAHW31 PHFO 261054
MTRITO
METAR PHTO 261053Z 22004KT 10SM SCT040 22/21 A2998 RMK AO2 SLP151
T02220206




000
SAHW31 PHFO 260954
MTRITO
METAR PHTO 260953Z AUTO 00000KT 10SM FEW023 BKN037 BKN044 23/21
A3000 RMK AO2 SLP156 T02280211 402890211 TSNO





000
SAHW31 PHFO 260954
MTRITO
METAR PHTO 260953Z AUTO 00000KT 10SM FEW023 BKN037 BKN044 23/21
A3000 RMK AO2 SLP156 T02280211 402890211 TSNO




000
SAHW31 PHFO 260937
MTRITO
SPECI PHTO 260935Z AUTO 23004KT 10SM SCT023 OVC041 23/21 A3000 RMK
AO2 T02280211 TSNO




000
SAHW31 PHFO 260937
MTRITO
SPECI PHTO 260935Z AUTO 23004KT 10SM SCT023 OVC041 23/21 A3000 RMK
AO2 T02280211 TSNO





000
SAHW31 PHFO 260930
MTRITO
SPECI PHTO 260928Z AUTO 24005KT 10SM BKN023 BKN041 23/21 A3000 RMK
AO2 T02280211 TSNO




000
SAHW31 PHFO 260930
MTRITO
SPECI PHTO 260928Z AUTO 24005KT 10SM BKN023 BKN041 23/21 A3000 RMK
AO2 T02280211 TSNO





000
SAHW31 PHFO 260854
MTRITO
METAR PHTO 260853Z AUTO 23005KT 10SM FEW024 FEW034 SCT065 23/21
A3001 RMK AO2 RAB10E20 SLP159 P0000 60002 T02280206 50009 TSNO




000
SAHW31 PHFO 260846
MTRITO
SPECI PHTO 260845Z AUTO 24007KT 10SM FEW024 SCT034 BKN050 23/21
A3000 RMK AO2 RAB10E20 P0000 T02280206 TSNO





000
SAHW31 PHFO 260846
MTRITO
SPECI PHTO 260845Z AUTO 24007KT 10SM FEW024 SCT034 BKN050 23/21
A3000 RMK AO2 RAB10E20 P0000 T02280206 TSNO




000
SAHW31 PHFO 260754
MTRITO
METAR PHTO 260753Z 22004KT 10SM BKN027 BKN036 OVC065 23/21 A3001 RMK
AO2 SLP161 T02280211





000
SAHW31 PHFO 260754
MTRITO
METAR PHTO 260753Z 22004KT 10SM BKN027 BKN036 OVC065 23/21 A3001 RMK
AO2 SLP161 T02280211




000
SAHW31 PHFO 260654
MTRITO
METAR PHTO 260653Z 24006KT 10SM FEW023 SCT044 SCT065 23/21 A2999 RMK
AO2 RAE38 SLP155 P0002 T02280206




000
SAHW31 PHFO 260637
MTRITO
SPECI PHTO 260636Z 23005KT 10SM -RA FEW023 SCT031 BKN060 23/21 A2999
RMK AO2 P0002 T02280206




000
SAHW31 PHFO 260554
MTRITO
METAR PHTO 260553Z 22005KT 9SM RA OVC020 23/21 A2998 RMK AO2 SLP150
P0000 60000 T02280211 10283 20228 53015




000
SAHW31 PHFO 260509
MTRITO
SPECI PHTO 260508Z 27009KT 10SM -RA BKN020 BKN028 OVC055 24/22 A2996
RMK AO2 P0000 T02390217





000
SAHW31 PHFO 260509
MTRITO
SPECI PHTO 260508Z 27009KT 10SM -RA BKN020 BKN028 OVC055 24/22 A2996
RMK AO2 P0000 T02390217




000
SAHW31 PHFO 260454
MTRITO
METAR PHTO 260453Z 22005KT 9SM -RA FEW023 SCT029 OVC060 25/23 A2996
RMK AO2 RAB37 SLP144 P0000 T02500228




000
SAHW31 PHFO 260454
MTRITO
METAR PHTO 260453Z 22005KT 9SM -RA FEW023 SCT029 OVC060 25/23 A2996
RMK AO2 RAB37 SLP144 P0000 T02500228





    US Dept of Commerce
    National Oceanic and Atmospheric Administration
    National Weather Service
    1325 East West Highway
    Silver Spring, MD 20910
    Page Author: NWS Internet Services Team
Disclaimer
Information Quality
Credits
Glossary
Privacy Policy
Freedom of Information Act (FOIA)
About Us
Career Opportunities